createdAt,value
2022-11-20T00:01:23.568Z,77.55
2022-11-20T00:03:53.137Z,77.40
2022-11-20T00:06:21.003Z,77.73
2022-11-20T00:08:48.400Z,77.48
2022-11-20T00:11:18.211Z,77.56
2022-11-20T00:13:46.054Z,77.92
2022-11-20T00:16:14.658Z,77.82
2022-11-20T00:18:43.197Z,77.71
2022-11-20T00:21:14.031Z,77.37
2022-11-20T00:23:40.649Z,77.88
2022-11-20T00:26:09.715Z,78.21
2022-11-20T00:28:36.219Z,78.09
2022-11-20T00:31:06.914Z,78.01
2022-11-20T00:33:34.937Z,77.81
2022-11-20T00:36:07.292Z,77.81
2022-11-20T00:38:34.484Z,78.11
2022-11-20T00:41:03.060Z,78.28
2022-11-20T00:43:30.134Z,78.26
2022-11-20T00:46:00.750Z,78.15
2022-11-20T00:48:27.711Z,78.01
2022-11-20T00:50:54.758Z,78.05
2022-11-20T00:53:21.795Z,78.27
2022-11-20T00:55:54.434Z,78.20
2022-11-20T00:58:20.920Z,78.22
2022-11-20T01:00:47.531Z,78.10
2022-11-20T01:03:14.074Z,78.04
2022-11-20T01:05:40.563Z,78.36
2022-11-20T01:08:07.075Z,78.17
2022-11-20T01:10:34.822Z,77.95
2022-11-20T01:13:25.381Z,77.94
2022-11-20T01:15:52.156Z,78.14
2022-11-20T01:18:18.609Z,77.81
2022-11-20T01:20:45.123Z,78.10
2022-11-20T01:23:11.639Z,78.20
2022-11-20T01:25:38.141Z,78.00
2022-11-20T01:28:04.678Z,78.06
2022-11-20T01:30:31.176Z,78.01
2022-11-20T01:32:57.680Z,78.48
2022-11-20T01:35:24.199Z,77.88
2022-11-20T01:37:51.379Z,78.28
2022-11-20T01:40:18.027Z,78.32
2022-11-20T01:43:11.690Z,77.93
2022-11-20T01:45:58.859Z,78.24
2022-11-20T01:48:30.536Z,78.14
2022-11-20T01:50:59.331Z,78.19
2022-11-20T01:53:32.909Z,78.42
2022-11-20T01:56:03.809Z,78.48
2022-11-20T01:58:34.980Z,78.90
2022-11-20T02:01:01.911Z,77.95
2022-11-20T02:03:29.072Z,78.50
2022-11-20T02:06:07.954Z,78.43
2022-11-20T02:08:35.254Z,78.69
2022-11-20T02:11:01.785Z,78.78
2022-11-20T02:13:44.185Z,79.04
2022-11-20T02:16:16.581Z,79.00
2022-11-20T02:18:44.419Z,79.34
2022-11-20T02:21:21.545Z,79.37
2022-11-20T02:24:01.519Z,79.55
2022-11-20T02:26:30.649Z,79.26
2022-11-20T02:28:58.892Z,78.81
2022-11-20T02:31:25.527Z,78.65
2022-11-20T02:33:57.214Z,78.90
2022-11-20T02:36:27.221Z,78.73
2022-11-20T02:38:53.730Z,78.82
2022-11-20T02:41:20.674Z,78.57
2022-11-20T02:43:47.362Z,78.41
2022-11-20T02:46:13.905Z,78.45
2022-11-20T02:48:40.391Z,78.33
2022-11-20T02:51:08.032Z,78.12
2022-11-20T02:53:34.533Z,77.93
2022-11-20T02:56:02.028Z,78.24
2022-11-20T02:58:28.491Z,77.83
2022-11-20T03:00:55.020Z,77.93
2022-11-20T03:03:22.511Z,78.03
2022-11-20T03:05:50.074Z,78.17
2022-11-20T03:08:16.544Z,78.24
2022-11-20T03:10:43.127Z,78.02
2022-11-20T03:13:11.553Z,77.83
2022-11-20T03:15:38.152Z,77.71
2022-11-20T03:18:05.011Z,77.66
2022-11-20T03:20:34.273Z,78.70
2022-11-20T03:23:01.362Z,78.77
2022-11-20T03:25:28.242Z,78.91
2022-11-20T03:27:55.426Z,78.72
2022-11-20T03:30:23.923Z,78.70
2022-11-20T03:32:54.738Z,78.91
2022-11-20T03:35:21.380Z,78.71
2022-11-20T03:37:48.069Z,78.72
2022-11-20T03:40:14.616Z,78.86
2022-11-20T03:42:46.015Z,78.36
2022-11-20T03:45:14.849Z,78.43
2022-11-20T03:47:41.512Z,78.43
2022-11-20T03:50:09.233Z,77.93
2022-11-20T03:52:36.789Z,78.11
2022-11-20T03:55:03.455Z,77.81
2022-11-20T03:57:29.988Z,78.18
2022-11-20T03:59:56.535Z,77.85
2022-11-20T04:02:23.383Z,77.71
2022-11-20T04:04:49.917Z,77.68
2022-11-20T04:07:16.521Z,77.85
2022-11-20T04:09:43.057Z,77.35
2022-11-20T04:12:10.609Z,77.32
2022-11-20T04:14:37.129Z,77.66
2022-11-20T04:17:04.821Z,77.51
2022-11-20T04:19:31.300Z,77.76
2022-11-20T04:21:57.732Z,77.67
2022-11-20T04:24:24.206Z,77.60
2022-11-20T04:26:50.651Z,77.88
2022-11-20T04:29:17.160Z,77.68
2022-11-20T04:31:43.618Z,77.91
2022-11-20T04:34:12.813Z,78.13
2022-11-20T04:36:39.299Z,78.33
2022-11-20T04:39:08.426Z,77.90
2022-11-20T04:41:37.161Z,78.20
2022-11-20T04:44:06.569Z,77.89
2022-11-20T04:46:38.115Z,78.02
2022-11-20T04:49:05.453Z,77.76
2022-11-20T04:51:32.172Z,77.65
2022-11-20T04:53:58.763Z,77.57
2022-11-20T04:56:25.657Z,77.45
2022-11-20T04:58:52.391Z,77.71
2022-11-20T05:01:21.748Z,77.59
2022-11-20T05:03:48.363Z,77.71
2022-11-20T05:06:17.708Z,77.92
2022-11-20T05:08:45.560Z,78.45
2022-11-20T05:11:15.179Z,78.70
2022-11-20T05:13:44.690Z,78.36
2022-11-20T05:16:15.624Z,78.40
2022-11-20T05:18:43.572Z,78.11
2022-11-20T05:21:12.656Z,78.01
2022-11-20T05:23:40.530Z,77.85
2022-11-20T05:26:09.423Z,78.12
2022-11-20T05:28:35.982Z,78.06
2022-11-20T05:31:07.110Z,77.58
2022-11-20T05:33:35.066Z,77.76
2022-11-20T05:36:03.280Z,77.63
2022-11-20T05:38:29.979Z,78.14
2022-11-20T05:40:56.464Z,78.20
2022-11-20T05:43:22.990Z,78.33
2022-11-20T05:45:54.984Z,77.82
2022-11-20T05:48:22.097Z,77.69
2022-11-20T05:50:49.451Z,77.67
2022-11-20T05:53:15.974Z,77.78
2022-11-20T05:55:42.652Z,78.03
2022-11-20T05:58:09.278Z,78.15
2022-11-20T06:00:36.370Z,78.39
2022-11-20T06:03:03.240Z,78.29
2022-11-20T06:05:29.779Z,78.31
2022-11-20T06:07:56.210Z,77.82
2022-11-20T06:10:22.693Z,77.90
2022-11-20T06:12:49.127Z,78.10
2022-11-20T06:15:15.627Z,77.75
2022-11-20T06:17:42.084Z,77.89
2022-11-20T06:20:09.195Z,78.17
2022-11-20T06:22:35.686Z,78.31
2022-11-20T06:25:02.176Z,78.23
2022-11-20T06:27:28.724Z,78.07
2022-11-20T06:29:55.244Z,77.93
2022-11-20T06:32:21.764Z,77.81
2022-11-20T06:34:48.249Z,77.59
2022-11-20T06:37:14.784Z,77.82
2022-11-20T06:39:41.273Z,78.08
2022-11-20T06:42:07.817Z,77.57
2022-11-20T06:44:34.331Z,77.83
2022-11-20T06:47:00.757Z,77.74
2022-11-20T06:49:27.395Z,77.71
2022-11-20T06:51:53.871Z,77.97
2022-11-20T06:54:20.373Z,77.50
2022-11-20T06:56:49.126Z,78.00
2022-11-20T06:59:15.723Z,77.43
2022-11-20T07:01:42.300Z,77.67
2022-11-20T07:04:08.906Z,77.43
2022-11-20T07:06:35.500Z,77.57
2022-11-20T07:23:16.828Z,77.48
2022-11-20T07:28:33.553Z,77.78
2022-11-20T07:32:12.428Z,77.58
2022-11-20T07:35:47.235Z,77.99
2022-11-20T07:38:24.023Z,77.99
2022-11-20T07:49:15.909Z,78.38
2022-11-20T07:51:42.405Z,78.69
2022-11-20T07:54:08.909Z,78.70
2022-11-20T07:56:35.441Z,78.89
2022-11-20T07:59:01.990Z,78.63
2022-11-20T08:01:28.517Z,78.72
2022-11-20T08:03:55.033Z,78.93
2022-11-20T08:06:21.620Z,78.99
2022-11-20T08:08:48.090Z,78.77
2022-11-20T08:11:33.093Z,78.69
2022-11-20T08:14:12.709Z,79.17
2022-11-20T08:16:40.734Z,79.37
2022-11-20T08:19:08.085Z,79.38
2022-11-20T08:21:38.182Z,79.59
2022-11-20T08:24:05.934Z,79.33
2022-11-20T08:26:32.491Z,79.58
2022-11-20T08:28:59.538Z,79.57
2022-11-20T08:31:27.994Z,79.76
2022-11-20T08:33:54.896Z,79.74
2022-11-20T08:36:22.859Z,79.80
2022-11-20T08:38:52.144Z,80.03
2022-11-20T08:41:24.488Z,80.60
2022-11-20T08:43:52.177Z,80.66
2022-11-20T08:46:18.774Z,80.76
2022-11-20T08:48:45.738Z,80.44
2022-11-20T08:51:12.953Z,80.68
2022-11-20T08:53:40.592Z,80.81
2022-11-20T08:56:07.671Z,80.96
2022-11-20T08:58:54.842Z,81.02
2022-11-20T09:01:22.836Z,81.02
2022-11-20T09:03:50.025Z,80.84
2022-11-20T09:06:17.238Z,80.92
2022-11-20T09:08:43.777Z,81.31
2022-11-20T09:11:10.851Z,80.98
2022-11-20T09:13:37.790Z,81.35
2022-11-20T09:16:07.625Z,81.38
2022-11-20T09:18:37.041Z,81.18
2022-11-20T09:21:06.294Z,81.24
2022-11-20T09:23:35.333Z,81.44
2022-11-20T09:26:04.805Z,81.57
2022-11-20T09:28:32.192Z,81.69
2022-11-20T09:30:59.139Z,81.53
2022-11-20T09:33:25.702Z,81.62
2022-11-20T09:35:52.312Z,81.96
2022-11-20T09:38:19.347Z,81.80
2022-11-20T09:40:54.312Z,81.80
2022-11-20T09:43:25.467Z,81.79
2022-11-20T09:46:13.118Z,81.49
2022-11-20T09:49:00.506Z,81.53
2022-11-20T09:51:34.302Z,81.70
2022-11-20T09:54:19.522Z,81.37
2022-11-20T09:56:52.828Z,81.44
2022-11-20T09:59:43.010Z,81.62
2022-11-20T10:02:23.585Z,81.51
2022-11-20T10:05:05.361Z,81.70
2022-11-20T10:07:41.797Z,81.92
2022-11-20T10:10:17.411Z,81.72
2022-11-20T10:13:02.475Z,81.55
2022-11-20T10:15:38.691Z,81.80
2022-11-20T10:18:25.505Z,81.76
2022-11-20T10:21:10.784Z,81.66
2022-11-20T10:23:43.283Z,81.92
2022-11-20T10:26:22.724Z,82.24
2022-11-20T10:28:57.217Z,81.86
2022-11-20T10:31:34.245Z,81.98
2022-11-20T10:34:16.882Z,81.83
2022-11-20T10:36:53.566Z,81.72
2022-11-20T10:39:29.760Z,81.81
2022-11-20T10:41:57.659Z,82.03
2022-11-20T10:44:50.215Z,82.14
2022-11-20T10:47:20.347Z,81.96
2022-11-20T10:49:52.129Z,82.50
2022-11-20T10:52:39.520Z,82.50
2022-11-20T10:55:24.497Z,82.43
2022-11-20T10:58:04.652Z,82.71
2022-11-20T11:00:33.214Z,82.97
2022-11-20T11:03:05.496Z,82.87
2022-11-20T11:05:41.647Z,83.06
2022-11-20T11:08:16.912Z,83.19
2022-11-20T11:10:53.579Z,83.21
2022-11-20T11:13:27.916Z,83.61
2022-11-20T11:15:54.973Z,83.75
2022-11-20T11:18:28.273Z,83.60
2022-11-20T11:20:55.913Z,83.61
2022-11-20T11:23:35.951Z,83.90
2022-11-20T11:26:05.359Z,83.93
2022-11-20T11:28:32.812Z,84.04
2022-11-20T11:30:59.381Z,83.99
2022-11-20T11:33:29.848Z,84.40
2022-11-20T11:35:59.467Z,84.63
2022-11-20T11:38:35.854Z,84.59
2022-11-20T11:41:04.138Z,84.57
2022-11-20T11:43:52.274Z,84.68
2022-11-20T11:46:34.555Z,85.03
2022-11-20T11:49:12.791Z,85.04
2022-11-20T11:52:00.013Z,85.53
2022-11-20T11:54:41.020Z,85.45
2022-11-20T11:57:24.154Z,85.63
2022-11-20T11:59:54.742Z,86.17
2022-11-20T12:02:33.820Z,86.60
2022-11-20T12:05:10.808Z,86.26
2022-11-20T12:07:46.727Z,86.99
2022-11-20T12:10:20.503Z,87.02
2022-11-20T12:12:59.616Z,87.23
2022-11-20T12:15:31.177Z,87.26
2022-11-20T12:17:57.756Z,87.32
2022-11-20T12:20:30.013Z,87.25
2022-11-20T12:23:12.090Z,87.64
2022-11-20T12:25:42.079Z,87.73
2022-11-20T12:28:08.520Z,88.18
2022-11-20T12:30:52.287Z,87.49
2022-11-20T12:33:37.499Z,87.94
2022-11-20T12:36:14.582Z,87.78
2022-11-20T12:39:01.024Z,88.56
2022-11-20T12:41:54.768Z,88.13
2022-11-20T12:45:02.683Z,88.60
2022-11-20T12:47:47.745Z,88.47
2022-11-20T12:50:30.571Z,88.78
2022-11-20T12:53:08.200Z,88.44
2022-11-20T12:55:51.062Z,88.99
2022-11-20T12:58:44.127Z,88.97
2022-11-20T13:01:41.033Z,88.96
2022-11-20T13:04:20.833Z,88.78
2022-11-20T13:06:48.374Z,89.17
2022-11-20T13:09:17.874Z,89.54
2022-11-20T13:11:48.108Z,89.58
2022-11-20T13:14:34.704Z,89.74
2022-11-20T13:17:15.938Z,89.61
2022-11-20T13:19:42.679Z,89.09
2022-11-20T13:22:10.511Z,89.41
2022-11-20T13:24:37.179Z,89.37
2022-11-20T13:27:05.094Z,89.68
2022-11-20T13:29:33.075Z,89.37
2022-11-20T13:32:07.947Z,89.39
2022-11-20T13:34:36.900Z,89.65
2022-11-20T13:37:04.911Z,89.68
2022-11-20T13:39:32.715Z,89.71
2022-11-20T13:42:00.510Z,90.34
2022-11-20T13:44:36.626Z,90.01
2022-11-20T13:47:03.242Z,89.94
2022-11-20T13:49:44.872Z,89.99
2022-11-20T13:52:39.628Z,89.91
2022-11-20T13:55:19.731Z,90.09
2022-11-20T13:57:53.406Z,90.38
2022-11-20T14:00:23.309Z,90.25
2022-11-20T14:03:03.247Z,90.18
2022-11-20T14:05:35.603Z,90.47
2022-11-20T14:08:06.594Z,90.44
2022-11-20T14:10:33.349Z,90.42
2022-11-20T14:12:59.946Z,90.80
2022-11-20T14:15:31.143Z,91.25
2022-11-20T14:17:58.466Z,90.50
2022-11-20T14:20:28.610Z,90.95
2022-11-20T14:22:56.133Z,91.01
2022-11-20T14:25:28.116Z,91.10
2022-11-20T14:27:57.531Z,90.66
2022-11-20T14:30:26.740Z,90.90
2022-11-20T14:32:57.100Z,90.81
2022-11-20T14:35:31.029Z,90.88
2022-11-20T14:37:58.225Z,91.03
2022-11-20T14:40:27.480Z,90.88
2022-11-20T14:45:52.193Z,91.22
2022-11-20T14:48:19.010Z,91.07
2022-11-20T14:50:50.688Z,91.37
2022-11-20T14:53:25.421Z,91.65
2022-11-20T14:56:02.152Z,91.27
2022-11-20T14:58:32.915Z,91.38
2022-11-20T15:01:04.614Z,91.57
2022-11-20T15:04:22.414Z,91.17
2022-11-20T15:06:54.196Z,91.56
2022-11-20T15:09:24.177Z,91.12
2022-11-20T15:11:57.930Z,91.74
2022-11-20T15:14:30.338Z,91.50
2022-11-20T15:16:58.583Z,92.03
2022-11-20T15:19:28.540Z,91.97
2022-11-20T15:21:55.237Z,92.04
2022-11-20T15:24:22.187Z,91.80
2022-11-20T15:26:49.073Z,92.06
2022-11-20T15:29:19.906Z,91.77
2022-11-20T15:31:47.041Z,91.99
2022-11-20T15:34:15.533Z,92.10
2022-11-20T15:36:43.125Z,92.10
2022-11-20T15:39:10.175Z,92.19
2022-11-20T15:41:37.886Z,92.43
2022-11-20T15:44:05.690Z,91.95
2022-11-20T15:46:39.694Z,91.87
2022-11-20T15:49:07.260Z,92.25
2022-11-20T15:51:37.068Z,92.48
2022-11-20T15:54:12.442Z,92.55
2022-11-20T15:56:39.120Z,92.97
2022-11-20T15:59:05.911Z,92.38
2022-11-20T16:01:32.816Z,92.47
2022-11-20T16:04:00.866Z,92.68
2022-11-20T16:06:27.480Z,92.81
2022-11-20T16:08:54.199Z,92.59
2022-11-20T16:11:20.784Z,92.84
2022-11-20T16:14:05.974Z,92.76
2022-11-20T16:16:34.991Z,92.84
2022-11-20T16:19:01.963Z,92.53
2022-11-20T16:21:31.961Z,92.56
2022-11-20T16:24:02.386Z,93.14
2022-11-20T16:26:29.209Z,93.03
2022-11-20T16:28:56.802Z,92.86
2022-11-20T16:31:23.748Z,93.13
2022-11-20T16:33:51.971Z,93.06
2022-11-20T16:36:19.650Z,92.88
2022-11-20T16:38:48.897Z,93.47
2022-11-20T16:41:15.653Z,93.17
2022-11-20T16:43:50.069Z,93.34
2022-11-20T16:46:18.832Z,93.94
2022-11-20T16:48:45.728Z,93.79
2022-11-20T16:51:13.234Z,93.45
2022-11-20T16:53:40.702Z,93.64
2022-11-20T16:56:17.417Z,93.54
2022-11-20T16:58:45.317Z,93.63
2022-11-20T17:01:14.554Z,93.48
2022-11-20T17:03:42.559Z,93.54
2022-11-20T17:06:15.162Z,93.73
2022-11-20T17:08:42.109Z,93.79
2022-11-20T17:11:12.376Z,93.83
2022-11-20T17:13:40.111Z,93.37
2022-11-20T17:16:15.777Z,93.69
2022-11-20T17:18:43.041Z,93.91
2022-11-20T17:21:11.624Z,93.93
2022-11-20T17:23:40.712Z,93.98
2022-11-20T17:26:10.786Z,94.05
2022-11-20T17:28:38.692Z,93.67
2022-11-20T17:31:08.350Z,94.04
2022-11-20T17:33:37.394Z,94.08
2022-11-20T17:36:05.027Z,94.12
2022-11-20T17:38:31.601Z,93.69
2022-11-20T17:41:16.540Z,93.86
2022-11-20T17:43:43.820Z,93.90
2022-11-20T17:46:15.476Z,93.51
2022-11-20T17:48:44.486Z,94.34
2022-11-20T17:51:16.018Z,93.56
2022-11-20T17:53:44.503Z,93.82
2022-11-20T17:56:30.597Z,93.87
2022-11-20T17:58:57.594Z,93.63
2022-11-20T18:01:24.622Z,93.96
2022-11-20T18:03:52.368Z,93.96
2022-11-20T18:06:21.653Z,94.27
2022-11-20T18:08:49.332Z,94.22
2022-11-20T18:11:27.029Z,94.00
2022-11-20T18:14:14.598Z,94.22
2022-11-20T18:16:44.393Z,93.99
2022-11-20T18:19:12.812Z,94.00
2022-11-20T18:21:39.579Z,94.30
2022-11-20T18:24:06.984Z,93.68
2022-11-20T18:26:33.468Z,93.99
2022-11-20T18:29:06.065Z,93.90
2022-11-20T18:31:34.096Z,93.70
2022-11-20T18:34:00.650Z,93.95
2022-11-20T18:36:29.409Z,94.15
2022-11-20T18:38:57.950Z,94.08
2022-11-20T18:41:46.133Z,94.26
2022-11-20T18:44:50.639Z,94.37
2022-11-20T18:47:20.018Z,94.54
2022-11-20T18:49:52.381Z,94.45
2022-11-20T18:52:25.391Z,94.62
2022-11-20T18:54:52.716Z,94.54
2022-11-20T18:57:21.288Z,94.57
2022-11-20T18:59:48.008Z,94.46
2022-11-20T19:02:17.019Z,94.15
2022-11-20T19:04:43.772Z,94.28
2022-11-20T19:07:12.244Z,94.50
2022-11-20T19:09:41.777Z,94.33
2022-11-20T19:12:10.425Z,94.69
2022-11-20T19:14:37.115Z,94.28
2022-11-20T19:17:04.605Z,94.27
2022-11-20T19:19:31.116Z,94.02
2022-11-20T19:21:57.636Z,94.33
2022-11-20T19:24:25.655Z,93.80
2022-11-20T19:26:52.474Z,93.61
2022-11-20T19:29:19.041Z,94.00
2022-11-20T19:31:45.792Z,94.48
2022-11-20T19:34:12.440Z,93.92
2022-11-20T19:36:44.792Z,94.30
2022-11-20T19:39:12.305Z,94.12
2022-11-20T19:41:40.043Z,93.55
2022-11-20T19:44:09.722Z,94.08
2022-11-20T19:46:37.903Z,93.93
2022-11-20T19:49:06.677Z,93.88
2022-11-20T19:51:35.063Z,94.16
2022-11-20T19:54:02.008Z,93.96
2022-11-20T19:56:30.682Z,94.15
2022-11-20T19:58:57.775Z,93.84
2022-11-20T20:01:29.608Z,93.99
2022-11-20T20:04:01.365Z,93.87
2022-11-20T20:06:28.862Z,93.95
2022-11-20T20:08:59.086Z,94.01
2022-11-20T20:11:29.482Z,94.25
2022-11-20T20:13:56.453Z,94.03
2022-11-20T20:16:26.328Z,93.89
2022-11-20T20:18:55.532Z,93.35
2022-11-20T20:21:22.273Z,93.80
2022-11-20T20:23:53.865Z,93.83
2022-11-20T20:26:21.408Z,93.88
2022-11-20T20:28:48.383Z,93.55
2022-11-20T20:31:18.383Z,94.18
2022-11-20T20:33:45.829Z,93.74
2022-11-20T20:36:14.457Z,93.98
2022-11-20T20:38:42.472Z,93.62
2022-11-20T20:41:09.069Z,93.91
2022-11-20T20:43:56.452Z,93.69
2022-11-20T20:46:24.869Z,93.49
2022-11-20T20:48:54.687Z,93.55
2022-11-20T20:51:22.527Z,93.92
2022-11-20T20:53:49.517Z,93.96
2022-11-20T20:56:17.391Z,93.85
2022-11-20T20:58:45.532Z,93.67
2022-11-20T21:01:14.492Z,93.88
2022-11-20T21:03:41.898Z,94.27
2022-11-20T21:06:10.699Z,93.88
2022-11-20T21:08:40.630Z,94.26
2022-11-20T21:11:14.567Z,93.86
2022-11-20T21:13:44.450Z,94.14
2022-11-20T21:16:11.952Z,93.92
2022-11-20T21:18:38.686Z,93.94
2022-11-20T21:21:26.256Z,93.85
2022-11-20T21:23:53.554Z,93.52
2022-11-20T21:26:20.787Z,94.19
2022-11-20T21:28:47.620Z,94.13
2022-11-20T21:31:18.355Z,94.13
2022-11-20T21:33:47.034Z,94.01
2022-11-20T21:36:15.964Z,93.78
2022-11-20T21:38:43.270Z,94.31
2022-11-20T21:41:11.101Z,93.62
2022-11-20T21:43:38.233Z,93.98
2022-11-20T21:46:07.748Z,93.57
2022-11-20T21:48:39.439Z,94.13
2022-11-20T21:51:11.436Z,93.98
2022-11-20T21:53:38.406Z,93.63
2022-11-20T21:56:07.109Z,93.54
2022-11-20T21:58:34.235Z,94.01
2022-11-20T22:01:08.955Z,93.98
2022-11-20T22:03:36.820Z,93.82
2022-11-20T22:06:03.832Z,94.04
2022-11-20T22:08:30.463Z,93.96
2022-11-20T22:11:00.402Z,93.90
2022-11-20T22:13:46.486Z,93.96
2022-11-20T22:16:14.078Z,94.07
2022-11-20T22:18:43.979Z,93.27
2022-11-20T22:21:11.760Z,93.69
2022-11-20T22:23:38.649Z,93.96
2022-11-20T22:26:07.514Z,93.82
2022-11-20T22:28:40.670Z,93.66
2022-11-20T22:31:10.832Z,93.82
2022-11-20T22:33:38.607Z,93.76
2022-11-20T22:36:08.015Z,93.59
2022-11-20T22:38:39.328Z,93.43
2022-11-20T22:41:06.028Z,93.78
2022-11-20T22:43:33.225Z,93.38
2022-11-20T22:46:04.426Z,93.68
2022-11-20T22:48:31.209Z,93.50
2022-11-20T22:51:10.364Z,93.99
2022-11-20T22:53:37.386Z,93.83
2022-11-20T22:56:06.781Z,93.78
2022-11-20T22:58:34.642Z,93.82
2022-11-20T23:01:08.442Z,93.47
2022-11-20T23:03:35.100Z,93.62
2022-11-20T23:06:02.466Z,93.73
2022-11-20T23:08:29.724Z,93.71
2022-11-20T23:11:00.998Z,94.01
2022-11-20T23:13:28.247Z,93.93
2022-11-20T23:15:55.627Z,93.83
2022-11-20T23:18:22.368Z,93.42
2022-11-20T23:20:48.911Z,93.50
2022-11-20T23:23:15.603Z,93.91
2022-11-20T23:25:42.097Z,93.30
2022-11-20T23:28:08.630Z,93.73
2022-11-20T23:30:35.680Z,93.62
2022-11-20T23:33:02.701Z,93.24
2022-11-20T23:35:29.276Z,93.19
2022-11-20T23:37:55.806Z,93.49
2022-11-20T23:40:22.352Z,93.21
2022-11-20T23:43:07.424Z,93.65
2022-11-20T23:45:38.285Z,93.18
2022-11-20T23:48:05.233Z,93.36
2022-11-20T23:50:31.768Z,93.28
2022-11-20T23:52:58.215Z,93.11
2022-11-20T23:55:24.712Z,92.95
2022-11-20T23:57:52.421Z,93.14
